Terminal Aerodrome Forecast
Issued by NWS Lake Charles, LA

Home | Current Version | Previous Version | Text Only | Print | Product List | Glossary On
Versions: 1 2 3 4 5 6 7 8 9 10 11 12 13 14 15 16
000
FTUS44 KLCH 281700
TAFARA
TAF
KARA 281720Z 2818/2918 02010KT P6SM OVC007
     FM282100 01008KT P6SM -SHRA OVC007
      TEMPO 2900/2904 4SM SHRA OVC004
     FM290600 01006KT 4SM BR OVC003
     FM291000 02005KT 2SM BR OVC002
     FM291500 03004KT 3SM BR OVC004=

USA.gov is the U.S. government's official web portal to all federal, state and local government web resources and services.